Time;durP1;ratioP1;P1;durP2;ratioP2;P2;SDS_P1;SDS_P2;PMS_P1;PMS_P2;Temp;Humidity;BMP_temperature;BMP_pressure;BME280_temperature;BME280_humidity;BME280_pressure;Samples;Min_cycle;Max_cycle;Signal;HPM_P1;HPM_P2
2023/02/10 15:23:55;;;;;;;47.40;29.25;;;;;;;5.50;73.29;102459.19;5070471;28;20198;-77
2023/02/10 15:26:29;;;;;;;48.83;28.83;;;;;;;5.32;72.73;102409.13;5071501;28;20128;-79
2023/02/10 15:29:09;;;;;;;49.00;28.92;;;;;;;5.66;73.26;102458.41;5072549;28;20112;-77
2023/02/10 15:31:39;;;;;;;45.67;28.83;;;;;;;5.38;72.65;102415.28;5067862;28;20071;-76
2023/02/10 15:34:27;;;;;;;47.55;28.88;;;;;;;5.70;71.73;102464.53;5066804;28;20045;-78
2023/02/10 15:37:00;;;;;;;45.50;28.70;;;;;;;5.51;71.91;102461.78;5062945;28;20053;-77
2023/02/10 15:39:33;;;;;;;47.47;28.05;;;;;;;5.68;72.63;102489.94;5065513;28;20508;-77
2023/02/10 15:42:11;;;;;;;48.15;28.60;;;;;;;5.48;72.83;102471.44;5060348;28;20072;-78
2023/02/10 15:44:42;;;;;;;48.85;28.40;;;;;;;5.33;73.15;102450.31;5064028;28;20056;-78
2023/02/10 15:47:15;;;;;;;47.95;26.75;;;;;;;5.10;73.87;102429.97;5060430;28;20152;-77
2023/02/10 15:49:48;;;;;;;50.47;28.48;;;;;;;5.34;74.11;102488.84;5056677;28;20417;-79
2023/02/10 15:52:24;;;;;;;45.47;27.42;;;;;;;5.11;74.41;102468.50;5066300;28;20036;-78
2023/02/10 15:54:54;;;;;;;45.25;26.80;;;;;;;4.73;74.76;102418.28;5058275;28;20059;-77
2023/02/10 15:57:20;;;;;;;46.83;28.05;;;;;;;5.12;75.29;102493.03;5067075;28;20048;-77
2023/02/10 15:59:50;;;;;;;44.38;26.27;;;;;;;5.08;75.53;102494.72;5061767;28;20512;-77
2023/02/10 16:02:18;;;;;;;48.13;28.90;;;;;;;5.04;76.01;102486.81;5068056;28;20041;-78
2023/02/10 16:04:46;;;;;;;47.25;27.80;;;;;;;5.01;75.69;102489.44;5063263;28;20651;-79
2023/02/10 16:07:23;;;;;;;46.30;27.02;;;;;;;4.90;76.50;102484.94;5070943;28;20048;-78
2023/02/10 16:09:50;;;;;;;47.50;28.45;;;;;;;4.67;76.98;102461.97;5061690;28;20045;-77
2023/02/10 16:12:18;;;;;;;47.28;28.63;;;;;;;4.44;76.43;102433.72;5074440;28;20049;-77
2023/02/10 16:14:45;;;;;;;48.90;28.30;;;;;;;4.36;77.37;102426.66;5059750;28;20072;-77
2023/02/10 16:17:20;;;;;;;50.00;29.75;;;;;;;4.49;78.26;102454.78;5058143;28;20142;-77
2023/02/10 16:19:48;;;;;;;52.30;29.85;;;;;;;4.62;79.16;102482.03;5069547;28;20077;-76
2023/02/10 16:22:14;;;;;;;49.40;29.17;;;;;;;4.43;78.89;102459.94;5049346;28;20071;-77
2023/02/10 16:24:41;;;;;;;51.67;29.40;;;;;;;3.12;79.42;102243.50;5067248;28;20052;-77
2023/02/10 16:27:10;;;;;;;50.47;30.67;;;;;;;3.57;81.38;102332.25;5071394;28;20049;-75
2023/02/10 16:29:38;;;;;;;53.40;31.65;;;;;;;3.75;82.24;102392.75;5064532;28;20076;-77
2023/02/10 16:32:04;;;;;;;52.72;30.35;;;;;;;3.83;82.96;102408.53;5060667;28;20490;-77
2023/02/10 16:34:31;;;;;;;59.33;32.58;;;;;;;3.93;83.47;102439.28;5041444;28;20067;-77
2023/02/10 16:36:58;;;;;;;58.10;33.38;;;;;;;4.13;84.53;102479.72;5056790;28;20079;-76
2023/02/10 16:39:25;;;;;;;57.80;32.30;;;;;;;3.74;84.63;102425.03;5068293;28;20063;-77
2023/02/10 16:41:53;;;;;;;60.85;34.30;;;;;;;3.74;85.26;102425.03;5059335;28;20044;-75
2023/02/10 16:44:19;;;;;;;58.80;33.40;;;;;;;3.51;85.07;102403.75;5064577;28;20074;-76
2023/02/10 16:46:46;;;;;;;64.47;33.03;;;;;;;3.78;86.06;102454.75;5060187;28;20053;-74
2023/02/10 16:49:15;;;;;;;57.78;33.13;;;;;;;3.74;86.75;102453.88;5058857;28;20041;-76
2023/02/10 16:51:43;;;;;;;58.80;34.25;;;;;;;3.76;87.25;102451.28;5064739;28;20092;-77
2023/02/10 16:54:10;;;;;;;58.85;33.85;;;;;;;3.61;87.91;102437.97;5062914;28;20599;-78
2023/02/10 16:56:38;;;;;;;62.70;35.40;;;;;;;3.83;87.66;102477.56;5061465;28;20149;-76
2023/02/10 16:59:05;;;;;;;57.78;33.45;;;;;;;3.62;88.13;102461.53;5074361;28;20134;-75
2023/02/10 17:01:32;;;;;;;65.63;35.08;;;;;;;3.00;88.85;102364.59;5072707;28;20735;-77
2023/02/10 17:04:01;;;;;;;61.83;34.40;;;;;;;3.63;88.22;102463.28;5065975;28;20197;-78
2023/02/10 17:06:30;;;;;;;66.45;35.70;;;;;;;3.64;88.40;102472.03;5061592;28;20052;-76
2023/02/10 17:08:57;;;;;;;61.60;35.20;;;;;;;3.65;88.85;102490.41;5064289;28;20049;-76
2023/02/10 17:11:24;;;;;;;61.22;34.70;;;;;;;3.13;88.60;102397.97;5042680;28;20108;-76
2023/02/10 17:13:51;;;;;;;63.65;35.90;;;;;;;3.07;88.95;102399.59;5068376;28;20079;-76
2023/02/10 17:16:39;;;;;;;62.95;35.22;;;;;;;3.39;89.37;102458.59;5078720;28;20051;-76
2023/02/10 17:19:06;;;;;;;60.92;34.85;;;;;;;3.59;89.37;102498.19;5075769;28;20104;-78
2023/02/10 17:21:33;;;;;;;63.00;34.65;;;;;;;2.95;89.94;102408.16;5065636;28;20056;-77
2023/02/10 17:24:00;;;;;;;63.22;35.35;;;;;;;2.87;89.77;102401.00;5068722;28;20511;-76
2023/02/10 17:26:26;;;;;;;61.70;35.22;;;;;;;3.46;90.49;102514.56;5064178;28;20054;-76
2023/02/10 17:28:54;;;;;;;62.17;36.20;;;;;;;3.10;91.37;102452.91;5066683;28;20056;-75
2023/02/10 17:31:22;;;;;;;62.03;34.95;;;;;;;3.38;91.75;102503.09;5067744;28;20123;-78
2023/02/10 17:33:49;;;;;;;67.10;35.47;;;;;;;3.43;92.01;102493.56;5062596;28;20110;-78
2023/02/10 17:36:26;;;;;;;64.03;36.08;;;;;;;2.74;92.03;102371.16;5062711;28;20040;-77
2023/02/10 17:38:53;;;;;;;60.42;35.72;;;;;;;2.49;91.94;102332.38;5058873;28;20056;-77
2023/02/10 17:41:24;;;;;;;64.10;36.20;;;;;;;2.76;92.24;102393.00;5067567;28;20071;-75
2023/02/10 17:43:54;;;;;;;65.35;35.00;;;;;;;3.31;92.26;102498.59;5063414;28;20515;-77
2023/02/10 17:46:21;;;;;;;65.75;37.33;;;;;;;2.13;92.56;102311.69;5063900;28;20064;-78
2023/02/10 17:48:48;;;;;;;65.32;37.67;;;;;;;2.62;93.56;102418.03;5069255;28;20066;-77
2023/02/10 17:51:19;;;;;;;61.65;35.88;;;;;;;2.93;94.00;102469.16;5059921;28;20124;-76
2023/02/10 17:53:48;;;;;;;64.82;36.33;;;;;;;2.69;94.88;102438.19;5048917;28;20056;-77
2023/02/10 17:56:16;;;;;;;70.20;37.72;;;;;;;2.36;94.54;102391.44;5066506;28;20117;-76
2023/02/10 17:58:43;;;;;;;73.20;41.58;;;;;;;3.01;95.03;102501.56;5064070;28;20054;-78
2023/02/10 18:01:24;;;;;;;62.70;35.97;;;;;;;2.86;94.99;102462.06;5064594;28;20110;-78
2023/02/10 18:03:51;;;;;;;61.83;35.38;;;;;;;2.75;96.29;102451.41;5061293;28;20119;-76
2023/02/10 18:06:18;;;;;;;69.63;37.13;;;;;;;3.13;96.40;102525.38;5054593;28;20074;-79
2023/02/10 18:08:46;;;;;;;66.30;37.47;;;;;;;2.85;96.61;102469.00;5060658;28;20056;-76
2023/02/10 18:11:13;;;;;;;62.08;35.22;;;;;;;2.60;96.67;102440.66;5067078;28;20131;-78
2023/02/10 18:13:40;;;;;;;57.83;33.90;;;;;;;2.32;96.10;102392.22;5060731;28;20059;-77
2023/02/10 18:16:07;;;;;;;64.70;36.70;;;;;;;2.97;98.11;102526.84;5065057;28;20056;-77
2023/02/10 18:18:34;;;;;;;66.10;36.38;;;;;;;2.84;98.19;102493.41;5065489;28;20098;-76
2023/02/10 18:21:01;;;;;;;63.55;35.35;;;;;;;3.02;97.96;102530.38;5072661;28;20053;-78
2023/02/10 18:23:28;;;;;;;69.93;38.53;;;;;;;2.98;99.40;102533.84;5066886;28;20060;-76
2023/02/10 18:25:54;;;;;;;61.10;35.63;;;;;;;2.88;100.00;102529.25;5064225;28;20532;-77
2023/02/10 18:28:22;;;;;;;72.10;37.72;;;;;;;2.42;100.00;102463.00;5082852;28;20048;-78
2023/02/10 18:30:49;;;;;;;64.93;35.88;;;;;;;2.35;100.00;102470.72;5060944;28;20049;-76
2023/02/10 18:33:17;;;;;;;61.13;35.60;;;;;;;2.74;100.00;102549.06;5049545;28;20048;-78
2023/02/10 18:35:43;;;;;;;61.38;36.00;;;;;;;2.30;100.00;102491.53;5063740;28;20056;-77
2023/02/10 18:38:10;;;;;;;61.75;36.42;;;;;;;2.01;100.00;102462.19;5061107;28;20056;-78
2023/02/10 18:40:41;;;;;;;61.53;34.50;;;;;;;2.43;100.00;102545.81;5066391;28;20059;-75
2023/02/10 18:43:09;;;;;;;63.95;35.97;;;;;;;1.80;100.00;102453.00;5068251;28;20053;-76
2023/02/10 18:45:43;;;;;;;64.65;35.90;;;;;;;2.29;100.00;102544.66;5053159;28;20187;-77
2023/02/10 18:48:11;;;;;;;66.93;36.70;;;;;;;2.16;100.00;102529.56;5073038;28;20380;-77
2023/02/10 18:50:38;;;;;;;65.97;36.95;;;;;;;1.84;100.00;102476.63;5072531;28;20135;-76
2023/02/10 18:53:05;;;;;;;60.05;34.80;;;;;;;1.77;100.00;102465.13;5045196;28;20551;-78
2023/02/10 18:55:32;;;;;;;62.35;34.45;;;;;;;1.54;100.00;102424.59;5066465;28;20063;-77
2023/02/10 18:58:01;;;;;;;59.90;34.85;;;;;;;2.13;100.00;102511.19;5065919;28;20132;-77
2023/02/10 19:00:29;;;;;;;64.32;35.40;;;;;;;1.53;100.00;102419.34;5073447;28;20054;-78
2023/02/10 19:02:56;;;;;;;66.82;37.45;;;;;;;2.14;100.00;102507.75;5062102;28;20053;-79
2023/02/10 19:05:23;;;;;;;62.80;37.20;;;;;;;2.12;100.00;102491.16;5069179;28;20056;-76
2023/02/10 19:07:51;;;;;;;71.25;38.33;;;;;;;1.96;100.00;102460.31;5065734;28;20052;-77
2023/02/10 19:10:18;;;;;;;65.18;37.17;;;;;;;2.07;100.00;102487.53;5053330;28;20040;-76
2023/02/10 19:12:48;;;;;;;63.83;35.65;;;;;;;1.51;100.00;102385.34;5040817;28;20083;-77
2023/02/10 19:15:15;;;;;;;65.88;36.88;;;;;;;2.29;100.00;102501.94;5072144;28;20075;-78
2023/02/10 19:17:41;;;;;;;71.03;38.47;;;;;;;1.99;100.00;102450.81;5062830;28;20064;-76
2023/02/10 19:20:09;;;;;;;70.43;38.75;;;;;;;1.81;100.00;102433.88;5069871;28;20071;-77
2023/02/10 19:22:36;;;;;;;73.28;39.75;;;;;;;1.84;100.00;102445.25;5064996;28;20127;-78
2023/02/10 19:25:05;;;;;;;70.63;38.13;;;;;;;1.81;100.00;102420.81;5065304;28;21051;-77
2023/02/10 19:27:32;;;;;;;68.30;38.78;;;;;;;2.34;100.00;102508.16;5066036;28;20049;-77
2023/02/10 19:29:59;;;;;;;70.20;38.28;;;;;;;2.39;100.00;102498.66;5056153;28;20048;-78
2023/02/10 19:32:25;;;;;;;72.93;39.30;;;;;;;1.86;100.00;102411.34;5059115;28;20049;-78
2023/02/10 19:34:52;;;;;;;81.50;43.22;;;;;;;1.34;100.00;102329.28;5066770;28;20053;-76
2023/02/10 19:37:21;;;;;;;79.03;42.08;;;;;;;2.15;100.00;102483.38;5065868;28;20075;-76
2023/02/10 19:39:48;;;;;;;75.63;39.90;;;;;;;1.46;100.00;102355.63;5059901;28;20053;-76
2023/02/10 19:42:14;;;;;;;70.75;39.15;;;;;;;1.60;100.00;102388.16;5062839;28;20509;-77
2023/02/10 19:44:41;;;;;;;67.65;38.10;;;;;;;1.44;100.00;102352.13;5058568;28;20140;-77
2023/02/10 19:47:07;;;;;;;70.25;38.78;;;;;;;1.54;100.00;102371.50;5072832;28;20567;-77
2023/02/10 19:49:34;;;;;;;67.05;36.63;;;;;;;1.95;100.00;102433.31;5069004;28;20071;-77
2023/02/10 19:52:14;;;;;;;68.85;38.95;;;;;;;1.93;100.00;102437.59;5070158;28;20051;-77
2023/02/10 19:54:46;;;;;;;70.50;38.92;;;;;;;1.63;100.00;102396.06;5070816;28;20429;-77
2023/02/10 19:57:12;;;;;;;67.53;38.33;;;;;;;1.32;100.00;102342.28;5065567;28;20061;-77
2023/02/10 19:59:39;;;;;;;65.95;37.47;;;;;;;0.77;100.00;102246.28;5064045;28;20139;-78
2023/02/10 20:02:07;;;;;;;63.53;36.47;;;;;;;2.17;100.00;102478.19;5055447;28;20478;-78
2023/02/10 20:04:34;;;;;;;65.07;36.92;;;;;;;1.63;100.00;102396.06;5071896;28;20049;-77
2023/02/10 20:07:01;;;;;;;68.10;37.45;;;;;;;1.74;100.00;102420.66;5069124;28;20084;-77
2023/02/10 20:09:28;;;;;;;64.75;36.60;;;;;;;1.97;100.00;102456.84;5063133;28;20129;-78
2023/02/10 20:11:54;;;;;;;67.75;36.55;;;;;;;1.66;100.00;102388.28;5050973;28;20068;-77
2023/02/10 20:14:22;;;;;;;66.38;37.30;;;;;;;2.07;100.00;102458.78;5067438;28;20051;-79
2023/02/10 20:16:48;;;;;;;72.57;39.35;;;;;;;1.88;100.00;102443.59;5047907;28;20106;-78
2023/02/10 20:19:18;;;;;;;68.38;39.20;;;;;;;2.10;100.00;102485.88;5062938;28;20050;-77
2023/02/10 20:21:46;;;;;;;63.90;36.90;;;;;;;2.10;100.00;102496.34;5065493;28;20171;-76
2023/02/10 20:24:13;;;;;;;71.75;39.55;;;;;;;1.97;100.00;102485.59;5075507;28;20127;-76
2023/02/10 20:26:40;;;;;;;68.63;38.67;;;;;;;1.45;100.00;102403.47;5065153;28;20094;-76
2023/02/10 20:29:09;;;;;;;68.63;36.63;;;;;;;1.64;100.00;102442.22;5062412;28;20048;-78
2023/02/10 20:31:37;;;;;;;69.72;39.30;;;;;;;1.12;100.00;102376.59;5063189;28;20064;-77
2023/02/10 20:34:05;;;;;;;69.22;37.78;;;;;;;0.85;100.00;102341.22;5058540;28;20053;-78
2023/02/10 20:36:32;;;;;;;66.47;38.65;;;;;;;1.70;100.00;102497.22;5061934;28;20052;-77
2023/02/10 20:39:05;;;;;;;69.05;37.55;;;;;;;1.41;100.00;102448.66;5073833;28;20056;-77
2023/02/10 20:41:32;;;;;;;70.22;39.05;;;;;;;1.22;100.00;102430.81;5067969;28;20087;-76
2023/02/10 20:44:02;;;;;;;67.30;38.05;;;;;;;1.01;100.00;102415.50;5060613;28;20087;-76
2023/02/10 20:46:31;;;;;;;64.53;36.95;;;;;;;0.42;100.00;102338.41;5060836;28;20052;-76
2023/02/10 20:49:03;;;;;;;71.03;39.67;;;;;;;1.19;100.00;102456.81;5059384;28;20053;-77
2023/02/10 20:51:31;;;;;;;66.45;37.70;;;;;;;1.37;100.00;102493.81;5061104;28;20121;-78
2023/02/10 20:53:58;;;;;;;71.22;38.92;;;;;;;1.44;100.00;102497.44;5068681;28;20140;-78
2023/02/10 20:56:25;;;;;;;69.75;37.65;;;;;;;1.43;100.00;102493.94;5063449;28;20513;-78
2023/02/10 20:58:51;;;;;;;67.20;37.83;;;;;;;0.93;100.00;102406.63;5068725;28;20057;-76
2023/02/10 21:01:18;;;;;;;71.85;40.38;;;;;;;1.00;100.00;102419.84;5078378;28;20102;-77
2023/02/10 21:03:45;;;;;;;66.68;38.17;;;;;;;1.02;100.00;102414.66;5049311;28;20079;-77
2023/02/10 21:06:18;;;;;;;69.10;38.10;;;;;;;0.28;100.00;102281.63;5066687;28;20056;-77
2023/02/10 21:08:48;;;;;;;69.85;37.33;;;;;;;0.84;100.00;102370.75;5057343;28;20049;-77
2023/02/10 21:11:17;;;;;;;69.65;38.30;;;;;;;0.71;100.00;102340.00;5069329;28;20061;-77
2023/02/10 21:13:44;;;;;;;69.38;37.50;;;;;;;1.22;100.00;102420.34;5065300;28;20416;-77
2023/02/10 21:16:12;;;;;;;74.15;38.67;;;;;;;1.01;100.00;102392.03;5062860;28;20472;-79
2023/02/10 21:18:43;;;;;;;67.55;35.95;;;;;;;0.12;100.00;102208.25;5069672;28;20126;-77
2023/02/10 21:21:12;;;;;;;64.95;36.45;;;;;;;1.70;100.00;102459.75;5053303;28;20049;-77
2023/02/10 21:23:39;;;;;;;66.30;36.42;;;;;;;0.84;100.00;102307.28;5070038;28;20135;-81
2023/02/10 21:26:06;;;;;;;63.58;34.60;;;;;;;0.62;100.00;102282.44;5058321;28;20057;-77
2023/02/10 21:28:35;;;;;;;61.20;33.92;;;;;;;1.40;100.00;102384.25;5070385;28;20094;-78
2023/02/10 21:31:17;;;;;;;64.65;34.17;;;;;;;1.84;100.00;102460.94;5068139;28;20102;-76
2023/02/10 21:33:44;;;;;;;63.38;33.10;;;;;;;1.87;100.00;102470.56;5061165;28;20045;-78
2023/02/10 21:36:30;;;;;;;65.03;34.50;;;;;;;1.74;100.00;102438.06;5052931;28;20569;-77
2023/02/10 21:38:59;;;;;;;56.85;32.35;;;;;;;1.87;100.00;102455.78;5056591;28;20135;-78
2023/02/10 21:41:51;;;;;;;61.17;33.58;;;;;;;0.91;100.00;102284.00;5059664;28;20257;-78
2023/02/10 21:44:28;;;;;;;60.83;33.38;;;;;;;0.83;100.00;102267.28;5069476;28;20044;-78
2023/02/10 21:47:05;;;;;;;55.25;32.47;;;;;;;1.85;100.00;102454.88;5057265;28;20044;-76
2023/02/10 21:49:37;;;;;;;62.08;34.38;;;;;;;-0.04;100.00;102116.72;5056470;28;20067;-76
2023/02/10 21:52:06;;;;;;;61.33;33.53;;;;;;;1.77;100.00;102448.56;5062207;28;20056;-77
2023/02/10 21:54:39;;;;;;;62.63;32.80;;;;;;;1.90;100.00;102465.41;5069590;28;20045;-78
2023/02/10 21:57:07;;;;;;;59.60;33.00;;;;;;;1.54;100.00;102408.03;5056514;28;20512;-76
2023/02/10 21:59:35;;;;;;;61.40;32.70;;;;;;;1.68;100.00;102417.94;5073183;28;20120;-77
2023/02/10 22:02:04;;;;;;;59.28;32.88;;;;;;;1.34;100.00;102374.53;5064800;28;20056;-77
2023/02/10 22:04:31;;;;;;;58.88;32.33;;;;;;;1.87;100.00;102455.78;5063767;28;20051;-77
2023/02/10 22:06:58;;;;;;;60.28;32.13;;;;;;;1.73;100.00;102431.09;5073808;28;20045;-77
2023/02/10 22:09:25;;;;;;;60.78;33.38;;;;;;;1.61;100.00;102409.91;5066513;28;20060;-78
2023/02/10 22:11:51;;;;;;;59.83;31.85;;;;;;;1.90;100.00;102465.41;5046080;28;20131;-77
2023/02/10 22:14:41;;;;;;;61.33;35.00;;;;;;;1.25;100.00;102358.69;5068991;28;20182;-77
2023/02/10 22:17:08;;;;;;;58.83;32.40;;;;;;;0.30;100.00;102230.44;5059990;28;20052;-79
2023/02/10 22:19:34;;;;;;;57.70;33.40;;;;;;;1.50;100.00;102430.59;5058631;28;20072;-77
2023/02/10 22:22:01;;;;;;;54.58;31.63;;;;;;;1.72;100.00;102481.56;5063056;28;20070;-77
2023/02/10 22:24:28;;;;;;;65.22;33.58;;;;;;;0.92;100.00;102357.91;5072607;28;20061;-78
2023/02/10 22:27:02;;;;;;;65.00;34.58;;;;;;;-0.15;100.00;102183.25;5062719;28;20060;-77
2023/02/10 22:29:33;;;;;;;68.07;34.65;;;;;;;-0.55;100.00;102134.53;5047530;28;20063;-77
2023/02/10 22:32:02;;;;;;;64.20;34.33;;;;;;;0.03;100.00;102228.84;5070229;28;20052;-78
2023/02/10 22:34:30;;;;;;;63.58;32.47;;;;;;;0.18;100.00;102271.78;5058721;28;20106;-78
2023/02/10 22:36:57;;;;;;;57.25;33.35;;;;;;;0.31;100.00;102279.09;5068974;28;20135;-77
2023/02/10 22:39:24;;;;;;;53.10;31.50;;;;;;;-0.55;100.00;102108.50;5066044;28;20087;-76
2023/02/10 22:41:53;;;;;;;62.63;33.35;;;;;;;1.55;100.00;102477.69;5061151;28;20049;-80
2023/02/10 22:44:20;;;;;;;62.40;32.55;;;;;;;-0.08;100.00;102187.81;5061913;28;20057;-78
2023/02/10 22:46:47;;;;;;;59.10;32.97;;;;;;;0.11;100.00;102201.28;5063611;28;20056;-78
2023/02/10 22:49:14;;;;;;;60.60;34.13;;;;;;;1.09;100.00;102350.47;5068449;28;20044;-77
2023/02/10 22:51:41;;;;;;;60.80;34.20;;;;;;;1.80;100.00;102458.22;5052396;28;20052;-77
2023/02/10 22:54:11;;;;;;;58.63;33.58;;;;;;;1.85;100.00;102460.09;5063244;28;20573;-76
2023/02/10 22:56:50;;;;;;;58.45;32.50;;;;;;;1.35;100.00;102378.03;5060143;28;20676;-78
2023/02/10 22:59:31;;;;;;;58.38;33.05;;;;;;;1.49;100.00;102415.75;5046047;28;20052;-80
2023/02/10 23:01:57;;;;;;;58.80;32.65;;;;;;;0.52;100.00;102256.97;5056269;28;20083;-78
2023/02/10 23:04:24;;;;;;;58.05;33.97;;;;;;;0.68;100.00;102269.53;5067627;28;20048;-79
2023/02/10 23:06:51;;;;;;;61.95;33.08;;;;;;;1.02;100.00;102337.28;5060328;28;20639;-78
2023/02/10 23:09:18;;;;;;;56.58;31.95;;;;;;;1.82;100.00;102474.81;5066334;28;20515;-77
2023/02/10 23:11:48;;;;;;;59.75;32.42;;;;;;;0.18;100.00;102214.47;5066757;28;20056;-75
2023/02/10 23:14:15;;;;;;;62.97;33.80;;;;;;;1.62;100.00;102466.53;5064484;28;20071;-76
2023/02/10 23:16:42;;;;;;;72.07;35.60;;;;;;;0.55;100.00;102303.97;5062668;28;20064;-79
2023/02/10 23:19:09;;;;;;;68.75;34.78;;;;;;;1.45;100.00;102465.25;5073181;28;20063;-76
2023/02/10 23:21:35;;;;;;;65.50;36.63;;;;;;;1.33;100.00;102460.63;5069811;28;20063;-76
2023/02/10 23:24:02;;;;;;;70.35;37.00;;;;;;;-0.07;100.00;102230.34;5054281;28;20095;-77
2023/02/10 23:26:33;;;;;;;69.72;37.42;;;;;;;1.24;100.00;102460.44;5061622;28;20208;-77
2023/02/10 23:29:05;;;;;;;66.35;35.80;;;;;;;0.10;100.00;102257.72;5065054;28;20072;-78
2023/02/10 23:31:32;;;;;;;66.97;36.25;;;;;;;0.61;100.00;102340.63;5073601;28;20051;-78
2023/02/10 23:33:59;;;;;;;67.43;35.88;;;;;;;0.80;100.00;102366.28;5074924;28;20143;-78
2023/02/10 23:36:26;;;;;;;72.57;36.78;;;;;;;1.27;100.00;102447.44;5079431;28;20087;-77
2023/02/10 23:38:53;;;;;;;66.82;35.83;;;;;;;1.30;100.00;102432.72;5073642;28;20052;-76
2023/02/10 23:41:20;;;;;;;66.43;37.72;;;;;;;1.34;100.00;102431.97;5065248;28;20051;-79
2023/02/10 23:43:47;;;;;;;65.70;35.53;;;;;;;0.45;100.00;102291.59;5075282;28;20381;-78
2023/02/10 23:46:13;;;;;;;65.60;36.83;;;;;;;-0.44;100.00;102130.47;5072538;28;20052;-76
2023/02/10 23:48:41;;;;;;;69.57;36.63;;;;;;;0.60;100.00;102297.16;5082836;28;20055;-78
2023/02/10 23:51:09;;;;;;;71.70;36.78;;;;;;;0.54;100.00;102291.78;5088182;28;20044;-76
2023/02/10 23:53:36;;;;;;;68.28;37.00;;;;;;;1.29;100.00;102419.63;5089768;28;20044;-76
2023/02/10 23:56:04;;;;;;;65.57;36.42;;;;;;;1.57;100.00;102456.00;5080336;28;20106;-77
2023/02/10 23:58:30;;;;;;;61.90;35.67;;;;;;;1.65;100.00;102446.59;5055632;28;20522;-77
